Time;durP1;ratioP1;P1;durP2;ratioP2;P2;SDS_P1;SDS_P2;PMS_P1;PMS_P2;Temp;Humidity;BMP_temperature;BMP_pressure;BME280_temperature;BME280_humidity;BME280_pressure;Samples;Min_cycle;Max_cycle;Signal;HPM_P1;HPM_P2
2024/02/22 03:40:15;;;;;;;24.97;14.70;;;5.30;99.90;;;;;;4689692;29;20409;-84
2024/02/22 04:05:51;;;;;;;21.57;13.73;;;5.00;99.90;;;;;;4708035;29;21300;-85
2024/02/22 04:25:59;;;;;;;28.23;15.37;;;4.80;99.90;;;;;;4524215;30;20751;-85
2024/02/22 04:56:36;;;;;;;26.73;15.20;;;4.00;99.90;;;;;;4472156;31;20527;-85
2024/02/22 05:16:48;;;;;;;26.83;15.13;;;3.30;99.90;;;;;;4474118;30;20209;-84
2024/02/22 05:42:37;;;;;;;31.57;18.37;;;3.60;99.90;;;;;;4522908;30;20236;-83
2024/02/22 06:13:02;;;;;;;33.93;18.37;;;3.60;99.90;;;;;;4665335;29;20648;-86
2024/02/22 06:38:00;;;;;;;30.80;18.03;;;4.40;99.90;;;;;;4547287;29;20808;-82
2024/02/22 06:53:27;;;;;;;31.37;18.57;;;4.70;99.90;;;;;;4440294;30;20337;-82
2024/02/22 07:38:37;;;;;;;15.57;10.40;;;6.60;99.90;;;;;;4456248;30;20800;-79
2024/02/22 07:59:37;;;;;;;12.57;8.50;;;7.10;91.80;;;;;;4573987;30;20321;-82
2024/02/22 08:24:43;;;;;;;13.07;7.97;;;7.70;90.00;;;;;;4534431;30;20250;-81
2024/02/22 08:50:00;;;;;;;11.83;7.10;;;8.70;86.70;;;;;;4546553;30;20816;-80
2024/02/22 09:05:32;;;;;;;10.67;7.70;;;9.10;86.20;;;;;;4356316;31;21731;-81
2024/02/22 09:25:42;;;;;;;12.27;6.40;;;9.20;85.20;;;;;;4312601;31;20307;-80
2024/02/22 09:56:09;;;;;;;9.63;6.20;;;10.10;84.20;;;;;;4517579;30;20345;-82
2024/02/22 10:16:33;;;;;;;11.50;6.37;;;10.20;84.10;;;;;;4391626;31;20373;-79
2024/02/22 11:17:21;;;;;;;9.10;5.90;;;10.40;83.70;;;;;;4455446;30;21064;-80
2024/02/22 11:47:13;;;;;;;7.60;5.60;;;10.30;84.50;;;;;;4417261;30;21332;-80
2024/02/22 12:07:49;;;;;;;6.77;5.50;;;10.70;84.90;;;;;;4420286;30;20507;-82
2024/02/22 12:38:30;;;;;;;6.67;5.43;;;10.60;84.90;;;;;;4509872;30;20244;-79
2024/02/22 13:03:17;;;;;;;8.47;5.87;;;10.30;86.60;;;;;;4473098;30;20226;-80
2024/02/22 13:24:02;;;;;;;9.67;5.97;;;9.80;90.20;;;;;;4324673;31;20313;-82
2024/02/22 14:14:53;;;;;;;8.27;6.50;;;9.40;94.90;;;;;;4550919;30;20358;-84
2024/02/22 15:00:33;;;;;;;9.53;7.03;;;9.30;93.10;;;;;;4657509;29;20252;-81
2024/02/22 15:25:37;;;;;;;10.07;7.80;;;9.10;92.00;;;;;;4491050;30;20210;-82
2024/02/22 15:50:43;;;;;;;9.87;8.70;;;8.90;91.30;;;;;;4446923;31;20755;-85
2024/02/22 16:16:42;;;;;;;11.60;8.67;;;8.80;90.90;;;;;;4538498;30;20339;-87
2024/02/22 16:47:14;;;;;;;13.07;9.63;;;8.50;90.40;;;;;;4542864;30;20271;-84
2024/02/22 17:07:35;;;;;;;10.93;9.47;;;8.40;90.00;;;;;;4615913;30;20231;-85
2024/02/22 17:32:31;;;;;;;15.33;10.27;;;8.50;89.30;;;;;;4484025;31;21163;-85
2024/02/22 18:02:46;;;;;;;11.33;9.20;;;8.70;87.80;;;;;;4672367;29;20543;-86
2024/02/22 18:28:27;;;;;;;11.17;8.20;;;8.60;87.00;;;;;;4609346;30;20413;-83
2024/02/22 19:24:33;;;;;;;16.00;9.70;;;8.70;85.40;;;;;;4631924;30;20416;-84
2024/02/22 19:44:55;;;;;;;10.87;7.80;;;8.70;85.30;;;;;;4613493;30;20238;-87
2024/02/22 20:09:51;;;;;;;12.13;9.23;;;8.50;86.70;;;;;;4582893;30;21214;-86
2024/02/22 20:35:38;;;;;;;11.37;8.73;;;8.40;86.70;;;;;;4676254;29;20750;-83
2024/02/22 21:05:50;;;;;;;11.53;8.30;;;8.50;86.50;;;;;;4596447;30;20272;-86
2024/02/22 21:36:16;;;;;;;10.90;8.63;;;8.70;85.80;;;;;;4669121;29;20211;-88
2024/02/22 22:01:48;;;;;;;11.97;8.93;;;8.70;85.90;;;;;;4639158;30;20609;-85
2024/02/22 22:37:21;;;;;;;12.37;9.17;;;8.70;85.70;;;;;;4596273;30;20652;-85
2024/02/22 22:57:40;;;;;;;10.07;8.77;;;8.80;85.40;;;;;;4628997;30;20251;-85
2024/02/22 23:22:39;;;;;;;13.47;10.40;;;8.70;85.50;;;;;;4577001;30;20450;-87
2024/02/22 23:48:13;;;;;;;12.40;10.07;;;8.70;85.70;;;;;;4639418;30;20611;-83
